sensor_id;sensor_type;location;lat;lon;timestamp;P1;durP1;ratioP1;P2;durP2;ratioP2
37885;SDS011;23726;52.520;13.434;2023-02-01T00:01:53;13.20;;;7.70;;
37885;SDS011;23726;52.520;13.434;2023-02-01T00:04:20;15.57;;;8.07;;
37885;SDS011;23726;52.520;13.434;2023-02-01T00:06:46;21.55;;;8.55;;
37885;SDS011;23726;52.520;13.434;2023-02-01T00:09:11;16.08;;;8.63;;
37885;SDS011;23726;52.520;13.434;2023-02-01T00:11:37;16.90;;;8.20;;
37885;SDS011;23726;52.520;13.434;2023-02-01T00:14:03;18.23;;;8.77;;
37885;SDS011;23726;52.520;13.434;2023-02-01T00:16:29;18.75;;;7.82;;
37885;SDS011;23726;52.520;13.434;2023-02-01T00:19:03;16.92;;;7.93;;
37885;SDS011;23726;52.520;13.434;2023-02-01T00:21:30;16.83;;;8.20;;
37885;SDS011;23726;52.520;13.434;2023-02-01T00:23:56;18.35;;;8.13;;
37885;SDS011;23726;52.520;13.434;2023-02-01T00:26:35;16.75;;;7.68;;
37885;SDS011;23726;52.520;13.434;2023-02-01T00:29:10;17.58;;;8.23;;
37885;SDS011;23726;52.520;13.434;2023-02-01T00:31:41;16.00;;;8.15;;
37885;SDS011;23726;52.520;13.434;2023-02-01T00:34:07;14.57;;;7.72;;
37885;SDS011;23726;52.520;13.434;2023-02-01T00:36:35;14.75;;;8.30;;
37885;SDS011;23726;52.520;13.434;2023-02-01T00:39:00;29.65;;;8.57;;
37885;SDS011;23726;52.520;13.434;2023-02-01T00:41:26;20.75;;;8.30;;
37885;SDS011;23726;52.520;13.434;2023-02-01T00:43:52;16.35;;;7.88;;
37885;SDS011;23726;52.520;13.434;2023-02-01T00:46:18;14.38;;;7.47;;
37885;SDS011;23726;52.520;13.434;2023-02-01T00:48:44;15.27;;;7.82;;
37885;SDS011;23726;52.520;13.434;2023-02-01T00:51:14;18.15;;;8.45;;
37885;SDS011;23726;52.520;13.434;2023-02-01T00:53:42;17.15;;;8.25;;
37885;SDS011;23726;52.520;13.434;2023-02-01T00:56:08;19.38;;;8.10;;
37885;SDS011;23726;52.520;13.434;2023-02-01T00:58:34;13.52;;;7.30;;
37885;SDS011;23726;52.520;13.434;2023-02-01T01:01:09;15.20;;;7.13;;
37885;SDS011;23726;52.520;13.434;2023-02-01T01:03:36;15.48;;;8.20;;
37885;SDS011;23726;52.520;13.434;2023-02-01T01:06:05;16.40;;;7.65;;
37885;SDS011;23726;52.520;13.434;2023-02-01T01:08:34;15.13;;;7.20;;
37885;SDS011;23726;52.520;13.434;2023-02-01T01:11:03;13.18;;;7.47;;
37885;SDS011;23726;52.520;13.434;2023-02-01T01:13:33;17.60;;;8.10;;
37885;SDS011;23726;52.520;13.434;2023-02-01T01:16:02;17.23;;;7.60;;
37885;SDS011;23726;52.520;13.434;2023-02-01T01:18:30;17.80;;;7.20;;
37885;SDS011;23726;52.520;13.434;2023-02-01T01:20:57;17.25;;;7.47;;
37885;SDS011;23726;52.520;13.434;2023-02-01T01:23:23;16.83;;;7.93;;
37885;SDS011;23726;52.520;13.434;2023-02-01T01:25:49;12.82;;;7.15;;
37885;SDS011;23726;52.520;13.434;2023-02-01T01:28:14;15.85;;;7.53;;
37885;SDS011;23726;52.520;13.434;2023-02-01T01:30:40;17.70;;;7.47;;
37885;SDS011;23726;52.520;13.434;2023-02-01T01:33:06;14.02;;;7.38;;
37885;SDS011;23726;52.520;13.434;2023-02-01T01:35:32;17.10;;;7.13;;
37885;SDS011;23726;52.520;13.434;2023-02-01T01:37:58;13.10;;;7.18;;
37885;SDS011;23726;52.520;13.434;2023-02-01T01:40:24;12.90;;;6.97;;
37885;SDS011;23726;52.520;13.434;2023-02-01T01:42:50;16.02;;;7.05;;
37885;SDS011;23726;52.520;13.434;2023-02-01T01:45:25;13.18;;;7.10;;
37885;SDS011;23726;52.520;13.434;2023-02-01T01:47:59;14.43;;;6.53;;
37885;SDS011;23726;52.520;13.434;2023-02-01T01:50:35;14.27;;;7.07;;
37885;SDS011;23726;52.520;13.434;2023-02-01T01:53:16;15.98;;;7.20;;
37885;SDS011;23726;52.520;13.434;2023-02-01T01:55:47;13.63;;;6.97;;
37885;SDS011;23726;52.520;13.434;2023-02-01T01:58:16;17.25;;;7.95;;
37885;SDS011;23726;52.520;13.434;2023-02-01T02:00:44;15.00;;;7.50;;
37885;SDS011;23726;52.520;13.434;2023-02-01T02:05:40;13.43;;;7.15;;
37885;SDS011;23726;52.520;13.434;2023-02-01T02:08:06;13.43;;;7.35;;
37885;SDS011;23726;52.520;13.434;2023-02-01T02:10:32;13.30;;;6.63;;
37885;SDS011;23726;52.520;13.434;2023-02-01T02:13:16;11.63;;;6.47;;
37885;SDS011;23726;52.520;13.434;2023-02-01T02:15:49;47.83;;;23.02;;
37885;SDS011;23726;52.520;13.434;2023-02-01T02:21:36;80.13;;;39.92;;
37885;SDS011;23726;52.520;13.434;2023-02-01T02:27:53;17.95;;;9.10;;
37885;SDS011;23726;52.520;13.434;2023-02-01T02:33:12;55.60;;;28.33;;
37885;SDS011;23726;52.520;13.434;2023-02-01T02:41:31;54.45;;;24.42;;
37885;SDS011;23726;52.520;13.434;2023-02-01T02:44:25;54.15;;;24.20;;
37885;SDS011;23726;52.520;13.434;2023-02-01T02:47:23;49.38;;;22.50;;
37885;SDS011;23726;52.520;13.434;2023-02-01T02:53:18;34.97;;;18.20;;
37885;SDS011;23726;52.520;13.434;2023-02-01T02:56:07;35.03;;;17.50;;
37885;SDS011;23726;52.520;13.434;2023-02-01T02:58:53;32.88;;;16.55;;
37885;SDS011;23726;52.520;13.434;2023-02-01T03:01:38;34.50;;;19.08;;
37885;SDS011;23726;52.520;13.434;2023-02-01T03:04:24;33.75;;;16.92;;
37885;SDS011;23726;52.520;13.434;2023-02-01T03:06:52;35.33;;;17.38;;
37885;SDS011;23726;52.520;13.434;2023-02-01T03:09:30;34.67;;;17.00;;
37885;SDS011;23726;52.520;13.434;2023-02-01T03:12:01;39.95;;;19.95;;
37885;SDS011;23726;52.520;13.434;2023-02-01T03:14:50;34.20;;;17.40;;
37885;SDS011;23726;52.520;13.434;2023-02-01T03:17:22;27.90;;;15.65;;
37885;SDS011;23726;52.520;13.434;2023-02-01T03:19:56;33.78;;;16.38;;
37885;SDS011;23726;52.520;13.434;2023-02-01T03:22:27;30.70;;;14.85;;
37885;SDS011;23726;52.520;13.434;2023-02-01T03:25:21;30.83;;;15.98;;
37885;SDS011;23726;52.520;13.434;2023-02-01T03:27:55;32.33;;;16.55;;
37885;SDS011;23726;52.520;13.434;2023-02-01T03:30:38;30.42;;;16.63;;
37885;SDS011;23726;52.520;13.434;2023-02-01T03:33:08;30.75;;;14.90;;
37885;SDS011;23726;52.520;13.434;2023-02-01T03:35:54;29.30;;;14.85;;
37885;SDS011;23726;52.520;13.434;2023-02-01T03:43:36;26.88;;;14.65;;
37885;SDS011;23726;52.520;13.434;2023-02-01T03:46:36;27.38;;;14.10;;
37885;SDS011;23726;52.520;13.434;2023-02-01T03:49:11;34.25;;;14.93;;
37885;SDS011;23726;52.520;13.434;2023-02-01T03:51:42;23.65;;;12.90;;
37885;SDS011;23726;52.520;13.434;2023-02-01T03:54:09;35.55;;;16.17;;
37885;SDS011;23726;52.520;13.434;2023-02-01T03:56:40;29.48;;;15.20;;
37885;SDS011;23726;52.520;13.434;2023-02-01T03:59:09;26.55;;;14.52;;
37885;SDS011;23726;52.520;13.434;2023-02-01T04:01:35;25.60;;;13.50;;
37885;SDS011;23726;52.520;13.434;2023-02-01T04:04:01;24.80;;;12.95;;
37885;SDS011;23726;52.520;13.434;2023-02-01T04:06:26;31.13;;;15.27;;
37885;SDS011;23726;52.520;13.434;2023-02-01T04:08:52;26.85;;;13.90;;
37885;SDS011;23726;52.520;13.434;2023-02-01T04:11:18;24.92;;;13.30;;
37885;SDS011;23726;52.520;13.434;2023-02-01T04:13:44;28.40;;;13.73;;
37885;SDS011;23726;52.520;13.434;2023-02-01T04:16:10;24.02;;;12.75;;
37885;SDS011;23726;52.520;13.434;2023-02-01T04:18:36;26.48;;;13.00;;
37885;SDS011;23726;52.520;13.434;2023-02-01T04:21:02;23.65;;;12.55;;
37885;SDS011;23726;52.520;13.434;2023-02-01T04:23:28;22.63;;;12.52;;
37885;SDS011;23726;52.520;13.434;2023-02-01T04:25:58;22.50;;;12.23;;
37885;SDS011;23726;52.520;13.434;2023-02-01T04:28:25;26.85;;;14.02;;
37885;SDS011;23726;52.520;13.434;2023-02-01T04:30:50;23.67;;;12.65;;
37885;SDS011;23726;52.520;13.434;2023-02-01T04:33:16;23.10;;;12.02;;
37885;SDS011;23726;52.520;13.434;2023-02-01T04:35:41;23.33;;;12.48;;
37885;SDS011;23726;52.520;13.434;2023-02-01T04:38:07;23.40;;;13.32;;
37885;SDS011;23726;52.520;13.434;2023-02-01T04:40:33;25.63;;;12.43;;
37885;SDS011;23726;52.520;13.434;2023-02-01T04:43:00;21.88;;;12.07;;
37885;SDS011;23726;52.520;13.434;2023-02-01T04:45:26;22.42;;;12.18;;
37885;SDS011;23726;52.520;13.434;2023-02-01T04:47:52;19.23;;;11.07;;
37885;SDS011;23726;52.520;13.434;2023-02-01T04:50:19;22.40;;;12.15;;
37885;SDS011;23726;52.520;13.434;2023-02-01T04:52:45;22.25;;;11.73;;
37885;SDS011;23726;52.520;13.434;2023-02-01T04:55:11;24.75;;;12.00;;
37885;SDS011;23726;52.520;13.434;2023-02-01T04:57:38;22.80;;;11.73;;
37885;SDS011;23726;52.520;13.434;2023-02-01T05:00:05;21.60;;;11.30;;
37885;SDS011;23726;52.520;13.434;2023-02-01T05:02:32;21.55;;;12.00;;
37885;SDS011;23726;52.520;13.434;2023-02-01T05:04:58;21.60;;;11.77;;
37885;SDS011;23726;52.520;13.434;2023-02-01T05:07:23;20.30;;;10.80;;
37885;SDS011;23726;52.520;13.434;2023-02-01T05:09:49;19.67;;;11.55;;
37885;SDS011;23726;52.520;13.434;2023-02-01T05:12:15;21.23;;;11.57;;
37885;SDS011;23726;52.520;13.434;2023-02-01T05:14:59;22.70;;;13.00;;
37885;SDS011;23726;52.520;13.434;2023-02-01T05:17:24;22.77;;;11.50;;
37885;SDS011;23726;52.520;13.434;2023-02-01T05:19:50;22.17;;;11.75;;
37885;SDS011;23726;52.520;13.434;2023-02-01T05:22:16;19.35;;;11.15;;
37885;SDS011;23726;52.520;13.434;2023-02-01T05:24:41;21.20;;;11.55;;
37885;SDS011;23726;52.520;13.434;2023-02-01T05:27:07;18.55;;;11.13;;
37885;SDS011;23726;52.520;13.434;2023-02-01T05:29:32;19.23;;;11.13;;
37885;SDS011;23726;52.520;13.434;2023-02-01T05:31:58;21.02;;;11.30;;
37885;SDS011;23726;52.520;13.434;2023-02-01T05:34:24;18.73;;;11.27;;
37885;SDS011;23726;52.520;13.434;2023-02-01T05:36:49;18.67;;;10.68;;
37885;SDS011;23726;52.520;13.434;2023-02-01T05:39:16;21.13;;;11.68;;
37885;SDS011;23726;52.520;13.434;2023-02-01T05:41:42;21.40;;;10.40;;
37885;SDS011;23726;52.520;13.434;2023-02-01T05:44:07;21.58;;;11.45;;
37885;SDS011;23726;52.520;13.434;2023-02-01T05:46:34;19.50;;;9.40;;
37885;SDS011;23726;52.520;13.434;2023-02-01T05:49:00;17.38;;;10.60;;
37885;SDS011;23726;52.520;13.434;2023-02-01T05:51:25;18.00;;;10.68;;
37885;SDS011;23726;52.520;13.434;2023-02-01T05:53:51;20.75;;;10.88;;
37885;SDS011;23726;52.520;13.434;2023-02-01T05:56:17;21.02;;;10.95;;
37885;SDS011;23726;52.520;13.434;2023-02-01T05:58:42;17.20;;;10.38;;
37885;SDS011;23726;52.520;13.434;2023-02-01T06:01:09;19.35;;;10.65;;
37885;SDS011;23726;52.520;13.434;2023-02-01T06:03:35;19.40;;;10.98;;
37885;SDS011;23726;52.520;13.434;2023-02-01T06:06:01;17.95;;;10.52;;
37885;SDS011;23726;52.520;13.434;2023-02-01T06:08:27;20.80;;;10.52;;
37885;SDS011;23726;52.520;13.434;2023-02-01T06:10:59;16.13;;;9.93;;
37885;SDS011;23726;52.520;13.434;2023-02-01T06:13:26;20.40;;;10.15;;
37885;SDS011;23726;52.520;13.434;2023-02-01T06:15:52;19.42;;;11.20;;
37885;SDS011;23726;52.520;13.434;2023-02-01T06:18:18;19.83;;;9.95;;
37885;SDS011;23726;52.520;13.434;2023-02-01T06:20:44;17.48;;;9.90;;
37885;SDS011;23726;52.520;13.434;2023-02-01T06:23:09;18.42;;;10.80;;
37885;SDS011;23726;52.520;13.434;2023-02-01T06:25:35;17.48;;;10.50;;
37885;SDS011;23726;52.520;13.434;2023-02-01T06:28:02;20.52;;;10.93;;
37885;SDS011;23726;52.520;13.434;2023-02-01T06:30:31;19.00;;;9.98;;
37885;SDS011;23726;52.520;13.434;2023-02-01T06:32:56;16.90;;;10.10;;
37885;SDS011;23726;52.520;13.434;2023-02-01T06:35:22;17.27;;;9.75;;
37885;SDS011;23726;52.520;13.434;2023-02-01T06:37:48;15.68;;;9.85;;
37885;SDS011;23726;52.520;13.434;2023-02-01T06:40:13;16.50;;;10.02;;
37885;SDS011;23726;52.520;13.434;2023-02-01T06:42:39;17.88;;;10.07;;
37885;SDS011;23726;52.520;13.434;2023-02-01T06:45:05;17.08;;;9.70;;
37885;SDS011;23726;52.520;13.434;2023-02-01T06:47:32;15.65;;;9.18;;
37885;SDS011;23726;52.520;13.434;2023-02-01T06:49:57;17.17;;;9.88;;
37885;SDS011;23726;52.520;13.434;2023-02-01T06:52:23;16.55;;;9.82;;
37885;SDS011;23726;52.520;13.434;2023-02-01T06:54:48;17.08;;;10.35;;
37885;SDS011;23726;52.520;13.434;2023-02-01T06:57:17;16.98;;;9.93;;
37885;SDS011;23726;52.520;13.434;2023-02-01T06:59:42;17.60;;;10.15;;
37885;SDS011;23726;52.520;13.434;2023-02-01T07:02:11;15.95;;;8.85;;
37885;SDS011;23726;52.520;13.434;2023-02-01T07:04:37;15.50;;;9.57;;
37885;SDS011;23726;52.520;13.434;2023-02-01T07:07:03;16.13;;;9.27;;
37885;SDS011;23726;52.520;13.434;2023-02-01T07:09:28;16.55;;;9.57;;
37885;SDS011;23726;52.520;13.434;2023-02-01T07:11:54;17.20;;;9.23;;
37885;SDS011;23726;52.520;13.434;2023-02-01T07:14:19;16.73;;;9.50;;
37885;SDS011;23726;52.520;13.434;2023-02-01T07:16:45;14.65;;;8.75;;
37885;SDS011;23726;52.520;13.434;2023-02-01T07:19:13;17.10;;;9.05;;
37885;SDS011;23726;52.520;13.434;2023-02-01T07:21:39;14.68;;;9.15;;
37885;SDS011;23726;52.520;13.434;2023-02-01T07:24:04;15.45;;;8.98;;
37885;SDS011;23726;52.520;13.434;2023-02-01T07:26:30;17.38;;;9.73;;
37885;SDS011;23726;52.520;13.434;2023-02-01T07:28:56;16.08;;;9.07;;
37885;SDS011;23726;52.520;13.434;2023-02-01T07:31:23;17.60;;;9.80;;
37885;SDS011;23726;52.520;13.434;2023-02-01T07:33:51;16.05;;;8.95;;
37885;SDS011;23726;52.520;13.434;2023-02-01T07:36:17;13.82;;;8.40;;
37885;SDS011;23726;52.520;13.434;2023-02-01T07:38:43;16.67;;;8.63;;
37885;SDS011;23726;52.520;13.434;2023-02-01T07:41:10;15.38;;;8.40;;
37885;SDS011;23726;52.520;13.434;2023-02-01T07:43:36;15.43;;;9.13;;
37885;SDS011;23726;52.520;13.434;2023-02-01T07:46:02;15.32;;;8.73;;
37885;SDS011;23726;52.520;13.434;2023-02-01T07:48:29;13.90;;;8.35;;
37885;SDS011;23726;52.520;13.434;2023-02-01T07:51:04;14.13;;;8.60;;
37885;SDS011;23726;52.520;13.434;2023-02-01T07:53:33;13.52;;;7.78;;
37885;SDS011;23726;52.520;13.434;2023-02-01T07:56:00;16.08;;;9.30;;
37885;SDS011;23726;52.520;13.434;2023-02-01T07:58:27;15.00;;;8.93;;
37885;SDS011;23726;52.520;13.434;2023-02-01T08:00:53;16.20;;;9.07;;
37885;SDS011;23726;52.520;13.434;2023-02-01T08:03:40;13.55;;;8.60;;
37885;SDS011;23726;52.520;13.434;2023-02-01T08:06:06;15.70;;;8.63;;
37885;SDS011;23726;52.520;13.434;2023-02-01T08:08:32;12.40;;;7.75;;
37885;SDS011;23726;52.520;13.434;2023-02-01T08:10:58;14.65;;;8.57;;
37885;SDS011;23726;52.520;13.434;2023-02-01T08:13:26;13.50;;;8.05;;
37885;SDS011;23726;52.520;13.434;2023-02-01T08:15:52;14.45;;;8.27;;
37885;SDS011;23726;52.520;13.434;2023-02-01T08:18:22;15.18;;;8.98;;
37885;SDS011;23726;52.520;13.434;2023-02-01T08:20:48;13.82;;;8.45;;
37885;SDS011;23726;52.520;13.434;2023-02-01T08:23:13;14.38;;;8.07;;
37885;SDS011;23726;52.520;13.434;2023-02-01T08:25:39;14.88;;;8.48;;
37885;SDS011;23726;52.520;13.434;2023-02-01T08:28:05;12.80;;;7.47;;
37885;SDS011;23726;52.520;13.434;2023-02-01T08:30:32;13.23;;;7.45;;
37885;SDS011;23726;52.520;13.434;2023-02-01T08:32:58;13.32;;;7.88;;
37885;SDS011;23726;52.520;13.434;2023-02-01T08:35:24;13.55;;;8.25;;
37885;SDS011;23726;52.520;13.434;2023-02-01T08:37:50;14.50;;;8.43;;
37885;SDS011;23726;52.520;13.434;2023-02-01T08:40:16;13.00;;;7.65;;
37885;SDS011;23726;52.520;13.434;2023-02-01T08:42:42;14.43;;;8.05;;
37885;SDS011;23726;52.520;13.434;2023-02-01T08:47:48;23.20;;;8.75;;
37885;SDS011;23726;52.520;13.434;2023-02-01T08:50:15;13.38;;;7.97;;
37885;SDS011;23726;52.520;13.434;2023-02-01T08:52:41;15.43;;;7.30;;
37885;SDS011;23726;52.520;13.434;2023-02-01T08:55:07;14.45;;;8.68;;
37885;SDS011;23726;52.520;13.434;2023-02-01T08:57:33;13.38;;;7.97;;
37885;SDS011;23726;52.520;13.434;2023-02-01T08:59:59;15.73;;;7.75;;
37885;SDS011;23726;52.520;13.434;2023-02-01T09:02:25;15.27;;;7.90;;
37885;SDS011;23726;52.520;13.434;2023-02-01T09:04:51;13.80;;;7.82;;
37885;SDS011;23726;52.520;13.434;2023-02-01T09:07:17;13.07;;;7.72;;
37885;SDS011;23726;52.520;13.434;2023-02-01T09:09:43;14.98;;;8.38;;
37885;SDS011;23726;52.520;13.434;2023-02-01T09:12:09;14.02;;;7.13;;
37885;SDS011;23726;52.520;13.434;2023-02-01T09:14:35;14.63;;;7.35;;
37885;SDS011;23726;52.520;13.434;2023-02-01T09:17:01;16.08;;;8.02;;
37885;SDS011;23726;52.520;13.434;2023-02-01T09:19:27;13.73;;;7.50;;
37885;SDS011;23726;52.520;13.434;2023-02-01T09:21:53;12.38;;;7.38;;
37885;SDS011;23726;52.520;13.434;2023-02-01T09:24:19;13.05;;;7.55;;
37885;SDS011;23726;52.520;13.434;2023-02-01T09:26:44;12.13;;;7.45;;
37885;SDS011;23726;52.520;13.434;2023-02-01T09:29:10;12.57;;;7.07;;
37885;SDS011;23726;52.520;13.434;2023-02-01T09:31:36;11.95;;;7.25;;
37885;SDS011;23726;52.520;13.434;2023-02-01T09:34:05;15.35;;;7.55;;
37885;SDS011;23726;52.520;13.434;2023-02-01T09:36:32;13.57;;;7.55;;
37885;SDS011;23726;52.520;13.434;2023-02-01T09:38:59;10.48;;;7.05;;
37885;SDS011;23726;52.520;13.434;2023-02-01T09:47:37;10.52;;;7.03;;
37885;SDS011;23726;52.520;13.434;2023-02-01T09:50:22;12.00;;;7.25;;
37885;SDS011;23726;52.520;13.434;2023-02-01T09:52:57;11.43;;;7.35;;
37885;SDS011;23726;52.520;13.434;2023-02-01T09:55:35;11.98;;;6.85;;
37885;SDS011;23726;52.520;13.434;2023-02-01T09:58:07;11.30;;;6.82;;
37885;SDS011;23726;52.520;13.434;2023-02-01T10:00:39;11.30;;;6.78;;
37885;SDS011;23726;52.520;13.434;2023-02-01T10:03:11;11.15;;;6.47;;
37885;SDS011;23726;52.520;13.434;2023-02-01T10:05:48;10.55;;;6.82;;
37885;SDS011;23726;52.520;13.434;2023-02-01T10:11:25;10.68;;;6.97;;
37885;SDS011;23726;52.520;13.434;2023-02-01T10:22:40;11.15;;;5.95;;
37885;SDS011;23726;52.520;13.434;2023-02-01T10:25:19;11.50;;;6.50;;
37885;SDS011;23726;52.520;13.434;2023-02-01T10:27:50;9.68;;;6.30;;
37885;SDS011;23726;52.520;13.434;2023-02-01T10:30:24;12.02;;;6.40;;
37885;SDS011;23726;52.520;13.434;2023-02-01T10:32:54;13.02;;;7.13;;
37885;SDS011;23726;52.520;13.434;2023-02-01T10:35:27;16.13;;;7.20;;
37885;SDS011;23726;52.520;13.434;2023-02-01T10:37:59;12.70;;;6.25;;
37885;SDS011;23726;52.520;13.434;2023-02-01T10:40:30;9.75;;;6.55;;
37885;SDS011;23726;52.520;13.434;2023-02-01T10:42:57;10.73;;;6.43;;
37885;SDS011;23726;52.520;13.434;2023-02-01T10:45:27;13.70;;;7.07;;
37885;SDS011;23726;52.520;13.434;2023-02-01T10:48:02;12.85;;;6.88;;
37885;SDS011;23726;52.520;13.434;2023-02-01T10:50:33;12.30;;;6.78;;
37885;SDS011;23726;52.520;13.434;2023-02-01T10:55:57;10.05;;;6.45;;
37885;SDS011;23726;52.520;13.434;2023-02-01T10:58:31;10.48;;;6.30;;
37885;SDS011;23726;52.520;13.434;2023-02-01T11:01:06;11.45;;;5.95;;
37885;SDS011;23726;52.520;13.434;2023-02-01T11:03:34;10.93;;;6.10;;
37885;SDS011;23726;52.520;13.434;2023-02-01T11:09:30;12.07;;;5.80;;
37885;SDS011;23726;52.520;13.434;2023-02-01T11:14:39;9.60;;;5.88;;
37885;SDS011;23726;52.520;13.434;2023-02-01T11:17:16;10.07;;;5.63;;
37885;SDS011;23726;52.520;13.434;2023-02-01T11:19:58;11.55;;;6.10;;
37885;SDS011;23726;52.520;13.434;2023-02-01T11:22:26;9.90;;;6.32;;
37885;SDS011;23726;52.520;13.434;2023-02-01T11:24:53;9.48;;;5.57;;
37885;SDS011;23726;52.520;13.434;2023-02-01T11:27:20;11.15;;;5.88;;
37885;SDS011;23726;52.520;13.434;2023-02-01T11:29:50;9.88;;;5.72;;
37885;SDS011;23726;52.520;13.434;2023-02-01T11:32:19;8.82;;;5.07;;
37885;SDS011;23726;52.520;13.434;2023-02-01T11:34:51;8.63;;;5.50;;
37885;SDS011;23726;52.520;13.434;2023-02-01T11:37:36;8.85;;;5.47;;
37885;SDS011;23726;52.520;13.434;2023-02-01T11:42:59;9.32;;;5.68;;
37885;SDS011;23726;52.520;13.434;2023-02-01T11:45:32;10.30;;;5.82;;
37885;SDS011;23726;52.520;13.434;2023-02-01T11:50:44;9.02;;;5.68;;
37885;SDS011;23726;52.520;13.434;2023-02-01T11:56:16;9.88;;;5.72;;
37885;SDS011;23726;52.520;13.434;2023-02-01T12:06:51;9.60;;;6.13;;
37885;SDS011;23726;52.520;13.434;2023-02-01T12:14:55;8.00;;;5.20;;
37885;SDS011;23726;52.520;13.434;2023-02-01T12:42:29;9.30;;;5.45;;
37885;SDS011;23726;52.520;13.434;2023-02-01T12:48:10;11.25;;;5.03;;
37885;SDS011;23726;52.520;13.434;2023-02-01T12:50:54;8.23;;;4.70;;
37885;SDS011;23726;52.520;13.434;2023-02-01T12:55:59;35.83;;;23.98;;
37885;SDS011;23726;52.520;13.434;2023-02-01T12:58:32;51.75;;;31.17;;
37885;SDS011;23726;52.520;13.434;2023-02-01T13:03:54;26.33;;;17.08;;
37885;SDS011;23726;52.520;13.434;2023-02-01T13:06:43;30.17;;;18.90;;
37885;SDS011;23726;52.520;13.434;2023-02-01T13:11:48;33.88;;;20.50;;
37885;SDS011;23726;52.520;13.434;2023-02-01T13:14:29;59.28;;;31.27;;
37885;SDS011;23726;52.520;13.434;2023-02-01T13:17:04;106.18;;;50.88;;
37885;SDS011;23726;52.520;13.434;2023-02-01T13:22:15;72.10;;;36.65;;
37885;SDS011;23726;52.520;13.434;2023-02-01T13:24:54;63.97;;;33.58;;
37885;SDS011;23726;52.520;13.434;2023-02-01T13:27:41;56.58;;;28.23;;
37885;SDS011;23726;52.520;13.434;2023-02-01T13:30:11;58.67;;;29.38;;
37885;SDS011;23726;52.520;13.434;2023-02-01T13:33:02;52.47;;;28.58;;
37885;SDS011;23726;52.520;13.434;2023-02-01T13:38:42;43.53;;;24.38;;
37885;SDS011;23726;52.520;13.434;2023-02-01T13:43:49;48.72;;;23.80;;
37885;SDS011;23726;52.520;13.434;2023-02-01T13:46:19;51.40;;;28.42;;
37885;SDS011;23726;52.520;13.434;2023-02-01T13:48:57;53.47;;;26.67;;
37885;SDS011;23726;52.520;13.434;2023-02-01T13:51:34;53.03;;;26.98;;
37885;SDS011;23726;52.520;13.434;2023-02-01T13:56:55;49.22;;;25.75;;
37885;SDS011;23726;52.520;13.434;2023-02-01T14:21:13;40.05;;;22.42;;
37885;SDS011;23726;52.520;13.434;2023-02-01T14:26:51;38.25;;;22.08;;
37885;SDS011;23726;52.520;13.434;2023-02-01T14:29:31;41.65;;;21.55;;
37885;SDS011;23726;52.520;13.434;2023-02-01T14:34:49;43.00;;;22.17;;
37885;SDS011;23726;52.520;13.434;2023-02-01T14:42:52;40.83;;;21.08;;
37885;SDS011;23726;52.520;13.434;2023-02-01T14:47:52;37.70;;;19.45;;
37885;SDS011;23726;52.520;13.434;2023-02-01T14:58:35;40.28;;;19.80;;
37885;SDS011;23726;52.520;13.434;2023-02-01T15:04:20;37.70;;;19.85;;
37885;SDS011;23726;52.520;13.434;2023-02-01T15:06:53;31.65;;;18.48;;
37885;SDS011;23726;52.520;13.434;2023-02-01T15:09:26;36.03;;;19.20;;
37885;SDS011;23726;52.520;13.434;2023-02-01T15:14:20;34.83;;;18.80;;
37885;SDS011;23726;52.520;13.434;2023-02-01T15:16:45;35.05;;;18.50;;
37885;SDS011;23726;52.520;13.434;2023-02-01T15:19:20;34.72;;;18.95;;
37885;SDS011;23726;52.520;13.434;2023-02-01T15:21:48;39.10;;;18.92;;
37885;SDS011;23726;52.520;13.434;2023-02-01T15:24:21;32.30;;;17.88;;
37885;SDS011;23726;52.520;13.434;2023-02-01T15:26:50;38.03;;;18.30;;
37885;SDS011;23726;52.520;13.434;2023-02-01T15:29:17;33.40;;;17.55;;
37885;SDS011;23726;52.520;13.434;2023-02-01T15:31:45;33.22;;;16.77;;
37885;SDS011;23726;52.520;13.434;2023-02-01T15:34:13;30.63;;;17.42;;
37885;SDS011;23726;52.520;13.434;2023-02-01T15:36:39;32.17;;;17.73;;
37885;SDS011;23726;52.520;13.434;2023-02-01T15:42:30;28.70;;;16.75;;
37885;SDS011;23726;52.520;13.434;2023-02-01T15:44:40;33.83;;;16.90;;
37885;SDS011;23726;52.520;13.434;2023-02-01T15:47:21;33.58;;;17.38;;
37885;SDS011;23726;52.520;13.434;2023-02-01T15:49:50;30.40;;;15.88;;
37885;SDS011;23726;52.520;13.434;2023-02-01T15:52:24;30.42;;;16.85;;
37885;SDS011;23726;52.520;13.434;2023-02-01T15:55:05;29.70;;;16.25;;
37885;SDS011;23726;52.520;13.434;2023-02-01T15:57:43;29.58;;;15.85;;
37885;SDS011;23726;52.520;13.434;2023-02-01T16:00:22;31.27;;;17.02;;
37885;SDS011;23726;52.520;13.434;2023-02-01T16:02:57;35.15;;;17.25;;
37885;SDS011;23726;52.520;13.434;2023-02-01T16:05:37;27.95;;;16.27;;
37885;SDS011;23726;52.520;13.434;2023-02-01T16:10:44;30.13;;;15.90;;
37885;SDS011;23726;52.520;13.434;2023-02-01T16:13:12;26.73;;;15.75;;
37885;SDS011;23726;52.520;13.434;2023-02-01T16:15:40;31.35;;;16.73;;
37885;SDS011;23726;52.520;13.434;2023-02-01T16:18:08;30.70;;;16.13;;
37885;SDS011;23726;52.520;13.434;2023-02-01T16:20:36;29.38;;;15.73;;
37885;SDS011;23726;52.520;13.434;2023-02-01T16:23:04;29.52;;;15.95;;
37885;SDS011;23726;52.520;13.434;2023-02-01T16:25:30;28.77;;;15.23;;
37885;SDS011;23726;52.520;13.434;2023-02-01T16:27:56;26.08;;;15.63;;
37885;SDS011;23726;52.520;13.434;2023-02-01T16:30:22;28.50;;;15.98;;
37885;SDS011;23726;52.520;13.434;2023-02-01T16:32:58;25.75;;;15.63;;
37885;SDS011;23726;52.520;13.434;2023-02-01T16:35:35;25.60;;;14.32;;
37885;SDS011;23726;52.520;13.434;2023-02-01T16:38:05;24.23;;;14.00;;
37885;SDS011;23726;52.520;13.434;2023-02-01T16:40:37;24.23;;;14.50;;
37885;SDS011;23726;52.520;13.434;2023-02-01T16:45:43;28.63;;;14.93;;
37885;SDS011;23726;52.520;13.434;2023-02-01T16:48:26;23.35;;;14.27;;
37885;SDS011;23726;52.520;13.434;2023-02-01T16:51:00;24.17;;;14.27;;
37885;SDS011;23726;52.520;13.434;2023-02-01T16:53:34;26.17;;;14.00;;
37885;SDS011;23726;52.520;13.434;2023-02-01T16:55:59;27.20;;;14.90;;
37885;SDS011;23726;52.520;13.434;2023-02-01T16:58:27;22.23;;;13.77;;
37885;SDS011;23726;52.520;13.434;2023-02-01T17:00:54;22.45;;;13.13;;
37885;SDS011;23726;52.520;13.434;2023-02-01T17:03:26;21.02;;;13.40;;
37885;SDS011;23726;52.520;13.434;2023-02-01T17:05:52;22.70;;;14.13;;
37885;SDS011;23726;52.520;13.434;2023-02-01T17:08:27;26.60;;;14.55;;
37885;SDS011;23726;52.520;13.434;2023-02-01T17:10:55;24.90;;;13.95;;
37885;SDS011;23726;52.520;13.434;2023-02-01T17:13:21;23.67;;;14.52;;
37885;SDS011;23726;52.520;13.434;2023-02-01T17:18:22;24.95;;;14.23;;
37885;SDS011;23726;52.520;13.434;2023-02-01T17:20:49;23.17;;;14.25;;
37885;SDS011;23726;52.520;13.434;2023-02-01T17:23:17;23.17;;;13.02;;
37885;SDS011;23726;52.520;13.434;2023-02-01T17:25:43;22.50;;;13.93;;
37885;SDS011;23726;52.520;13.434;2023-02-01T17:28:09;21.23;;;13.10;;
37885;SDS011;23726;52.520;13.434;2023-02-01T17:30:35;22.52;;;13.15;;
37885;SDS011;23726;52.520;13.434;2023-02-01T17:33:02;23.52;;;13.73;;
37885;SDS011;23726;52.520;13.434;2023-02-01T17:35:28;22.73;;;12.95;;
37885;SDS011;23726;52.520;13.434;2023-02-01T17:37:55;24.50;;;14.20;;